createdAt,value
2018-11-25T00:00:10.590Z,99.90
2018-11-25T00:02:37.870Z,99.90
2018-11-25T00:05:05.967Z,99.90
2018-11-25T00:07:34.825Z,99.90
2018-11-25T00:10:00.702Z,99.90
2018-11-25T00:12:28.040Z,99.90
2018-11-25T00:14:55.407Z,99.90
2018-11-25T00:17:22.735Z,99.90
2018-11-25T00:19:50.144Z,99.90
2018-11-25T00:22:17.514Z,99.90
2018-11-25T00:24:44.884Z,99.90
2018-11-25T00:27:12.240Z,99.90
2018-11-25T00:29:39.607Z,99.90
2018-11-25T00:32:07.006Z,99.90
2018-11-25T00:34:34.369Z,99.90
2018-11-25T00:37:01.706Z,99.90
2018-11-25T00:39:29.121Z,99.90
2018-11-25T00:41:56.447Z,99.90
2018-11-25T00:44:23.786Z,99.90
2018-11-25T00:46:51.140Z,99.90
2018-11-25T00:49:18.478Z,99.90
2018-11-25T00:51:45.809Z,99.90
2018-11-25T00:54:13.214Z,99.90
2018-11-25T00:56:40.538Z,99.90
2018-11-25T00:59:08.585Z,99.90
2018-11-25T01:01:35.230Z,99.90
2018-11-25T01:04:02.689Z,99.90
2018-11-25T01:06:30.231Z,99.90
2018-11-25T01:08:57.590Z,99.90
2018-11-25T01:11:24.954Z,99.90
2018-11-25T01:13:52.310Z,99.90
2018-11-25T01:16:19.653Z,99.90
2018-11-25T01:18:47.030Z,99.90
2018-11-25T01:21:14.418Z,99.90
2018-11-25T01:23:41.771Z,99.90
2018-11-25T01:26:09.185Z,99.90
2018-11-25T01:28:36.627Z,99.90
2018-11-25T01:31:04.267Z,99.90
2018-11-25T01:33:31.690Z,99.90
2018-11-25T01:35:59.057Z,99.90
2018-11-25T01:38:26.422Z,99.90
2018-11-25T01:40:53.758Z,99.90
2018-11-25T01:43:21.122Z,99.90
2018-11-25T01:45:48.466Z,99.90
2018-11-25T01:48:15.834Z,99.90
2018-11-25T01:50:43.186Z,99.90
2018-11-25T01:53:10.615Z,99.90
2018-11-25T01:55:37.899Z,99.90
2018-11-25T01:58:05.656Z,99.90
2018-11-25T02:00:33.059Z,99.90
2018-11-25T02:03:00.460Z,99.90
2018-11-25T02:05:27.827Z,99.90
2018-11-25T02:07:55.187Z,99.90
2018-11-25T02:10:22.543Z,99.90
2018-11-25T02:12:49.954Z,99.90
2018-11-25T02:15:17.429Z,99.90
2018-11-25T02:17:44.891Z,99.90
2018-11-25T02:20:16.741Z,99.90
2018-11-25T02:22:44.084Z,99.90
2018-11-25T02:25:11.513Z,99.90
2018-11-25T02:27:38.875Z,99.90
2018-11-25T02:30:08.807Z,99.90
2018-11-25T02:32:36.140Z,99.90
2018-11-25T02:35:04.294Z,99.90
2018-11-25T02:37:31.678Z,99.90
2018-11-25T02:39:59.050Z,99.90
2018-11-25T02:42:26.430Z,99.90
2018-11-25T02:44:53.775Z,99.90
2018-11-25T02:47:21.162Z,99.90
2018-11-25T02:49:48.590Z,99.90
2018-11-25T02:52:15.963Z,99.90
2018-11-25T02:54:43.344Z,99.90
2018-11-25T02:57:10.697Z,99.90
2018-11-25T02:59:38.069Z,99.90
2018-11-25T03:02:05.491Z,99.90
2018-11-25T03:04:32.843Z,99.90
2018-11-25T03:07:00.135Z,99.90
2018-11-25T03:09:27.514Z,99.90
2018-11-25T03:11:54.895Z,99.90
2018-11-25T03:14:22.280Z,99.90
2018-11-25T03:16:49.649Z,99.90
2018-11-25T03:19:17.045Z,99.90
2018-11-25T03:21:44.439Z,99.90
2018-11-25T03:24:11.774Z,99.90
2018-11-25T03:26:39.142Z,99.90
2018-11-25T03:29:06.526Z,99.90
2018-11-25T03:31:33.946Z,99.90
2018-11-25T03:34:01.332Z,99.90
2018-11-25T03:36:28.679Z,99.90
2018-11-25T03:38:56.072Z,99.90
2018-11-25T03:41:23.486Z,99.90
2018-11-25T03:43:50.853Z,99.90
2018-11-25T03:46:18.242Z,99.90
2018-11-25T03:48:45.603Z,99.90
2018-11-25T03:51:12.984Z,99.90
2018-11-25T03:53:40.329Z,99.90
2018-11-25T03:56:07.747Z,99.90
2018-11-25T03:58:35.108Z,99.90
2018-11-25T04:01:02.517Z,99.90
2018-11-25T04:03:29.913Z,99.90
2018-11-25T04:05:57.342Z,99.90
2018-11-25T04:08:24.712Z,99.90
2018-11-25T04:10:52.100Z,99.90
2018-11-25T04:13:19.442Z,99.90
2018-11-25T04:15:46.856Z,99.90
2018-11-25T04:18:14.127Z,99.90
2018-11-25T04:20:41.497Z,99.90
2018-11-25T04:23:08.866Z,99.90
2018-11-25T04:25:36.247Z,99.90
2018-11-25T04:28:03.711Z,99.90
2018-11-25T04:30:31.135Z,99.90
2018-11-25T04:32:58.508Z,99.90
2018-11-25T04:35:25.858Z,99.90
2018-11-25T04:37:53.238Z,99.90
2018-11-25T04:40:20.623Z,99.90
2018-11-25T04:42:47.965Z,99.90
2018-11-25T04:45:16.077Z,99.90
2018-11-25T04:47:43.958Z,99.90
2018-11-25T04:50:13.547Z,99.90
2018-11-25T04:52:41.183Z,99.90
2018-11-25T04:55:08.892Z,99.90
2018-11-25T04:57:36.267Z,99.90
2018-11-25T05:00:05.490Z,99.90
2018-11-25T05:02:32.827Z,99.90
2018-11-25T05:05:00.171Z,99.90
2018-11-25T05:07:27.565Z,99.90
2018-11-25T05:09:54.958Z,99.90
2018-11-25T05:12:22.331Z,99.90
2018-11-25T05:14:49.744Z,99.90
2018-11-25T05:17:17.113Z,99.90
2018-11-25T05:19:44.575Z,99.90
2018-11-25T05:22:11.989Z,99.90
2018-11-25T05:24:39.363Z,99.90
2018-11-25T05:27:06.713Z,99.90
2018-11-25T05:29:34.071Z,99.90
2018-11-25T05:32:01.423Z,99.90
2018-11-25T05:34:28.882Z,99.90
2018-11-25T05:36:56.291Z,99.90
2018-11-25T05:39:23.697Z,99.90
2018-11-25T05:41:51.122Z,99.90
2018-11-25T05:44:18.473Z,99.90
2018-11-25T05:46:45.852Z,99.90
2018-11-25T05:49:13.235Z,99.90
2018-11-25T05:51:40.590Z,99.90
2018-11-25T05:54:07.945Z,99.90
2018-11-25T05:56:35.351Z,99.90
2018-11-25T05:59:02.711Z,99.90
2018-11-25T06:01:30.115Z,99.90
2018-11-25T06:03:57.539Z,99.90
2018-11-25T06:06:24.983Z,99.90
2018-11-25T06:08:52.365Z,99.90
2018-11-25T06:11:19.808Z,99.90
2018-11-25T06:13:47.134Z,99.90
2018-11-25T06:16:14.538Z,99.90
2018-11-25T06:18:41.880Z,99.90
2018-11-25T06:21:09.281Z,99.90
2018-11-25T06:23:36.612Z,99.90
2018-11-25T06:26:04.207Z,99.90
2018-11-25T06:28:31.561Z,99.90
2018-11-25T06:30:58.927Z,99.90
2018-11-25T06:33:26.294Z,99.90
2018-11-25T06:35:53.612Z,99.90
2018-11-25T06:38:20.938Z,99.90
2018-11-25T06:40:48.291Z,99.90
2018-11-25T06:43:15.688Z,99.90
2018-11-25T06:45:43.029Z,99.90
2018-11-25T06:48:10.387Z,99.90
2018-11-25T06:50:37.722Z,99.90
2018-11-25T06:53:05.174Z,99.90
2018-11-25T06:55:32.489Z,99.90
2018-11-25T06:57:59.885Z,99.90
2018-11-25T07:00:27.299Z,99.90
2018-11-25T07:02:54.736Z,99.90
2018-11-25T07:05:22.098Z,99.90
2018-11-25T07:07:49.506Z,99.90
2018-11-25T07:10:20.923Z,99.90
2018-11-25T07:12:49.562Z,99.90
2018-11-25T07:15:17.554Z,99.90
2018-11-25T07:17:44.989Z,99.90
2018-11-25T07:20:13.428Z,99.90
2018-11-25T07:22:40.788Z,99.90
2018-11-25T07:25:13.524Z,99.90
2018-11-25T07:27:40.885Z,99.90
2018-11-25T07:30:12.772Z,99.90
2018-11-25T07:32:41.025Z,99.90
2018-11-25T07:35:08.442Z,99.90
2018-11-25T07:37:36.006Z,99.90
2018-11-25T07:40:06.260Z,99.90
2018-11-25T07:42:33.575Z,99.90
2018-11-25T07:45:00.971Z,99.90
2018-11-25T07:47:28.347Z,99.90
2018-11-25T07:49:55.705Z,99.90
2018-11-25T07:52:23.112Z,99.90
2018-11-25T07:54:51.443Z,99.90
2018-11-25T07:57:18.819Z,99.90
2018-11-25T07:59:46.243Z,99.90
2018-11-25T08:02:13.530Z,99.90
2018-11-25T08:04:40.936Z,99.90
2018-11-25T08:07:08.367Z,99.90
2018-11-25T08:09:35.717Z,99.90
2018-11-25T08:12:03.087Z,99.90
2018-11-25T08:14:30.397Z,99.90
2018-11-25T08:16:57.791Z,99.90
2018-11-25T08:19:25.179Z,99.90
2018-11-25T08:21:52.549Z,99.90
2018-11-25T08:24:19.963Z,99.90
2018-11-25T08:26:47.288Z,99.90
2018-11-25T08:29:14.705Z,99.90
2018-11-25T08:31:42.104Z,99.90
2018-11-25T08:34:09.486Z,99.90
2018-11-25T08:36:36.888Z,99.90
2018-11-25T08:39:07.386Z,99.90
2018-11-25T08:41:34.974Z,99.90
2018-11-25T08:44:02.397Z,99.90
2018-11-25T08:46:29.787Z,99.90
2018-11-25T08:48:57.194Z,99.90
2018-11-25T08:51:24.547Z,99.90
2018-11-25T08:53:51.967Z,99.90
2018-11-25T08:56:19.304Z,99.90
2018-11-25T08:58:46.672Z,99.90
2018-11-25T09:01:13.984Z,99.90
2018-11-25T09:03:41.378Z,99.90
2018-11-25T09:06:08.857Z,99.90
2018-11-25T09:08:36.215Z,99.90
2018-11-25T09:11:03.579Z,99.90
2018-11-25T09:13:30.961Z,99.90
2018-11-25T09:15:58.298Z,99.90
2018-11-25T09:18:25.771Z,99.90
2018-11-25T09:20:53.090Z,99.90
2018-11-25T09:23:20.465Z,99.90
2018-11-25T09:25:47.851Z,99.90
2018-11-25T09:28:15.205Z,99.90
2018-11-25T09:30:42.545Z,99.90
2018-11-25T09:33:09.886Z,99.90
2018-11-25T09:35:37.303Z,99.90
2018-11-25T09:38:04.835Z,99.90
2018-11-25T09:40:32.185Z,99.90
2018-11-25T09:42:59.541Z,99.90
2018-11-25T09:45:26.924Z,99.90
2018-11-25T09:47:54.316Z,99.90
2018-11-25T09:50:22.430Z,99.90
2018-11-25T09:52:49.942Z,99.40
2018-11-25T09:55:18.394Z,99.40
2018-11-25T09:57:49.902Z,99.40
2018-11-25T10:00:20.245Z,99.10
2018-11-25T10:02:47.660Z,99.20
2018-11-25T10:05:15.036Z,99.10
2018-11-25T10:07:42.453Z,99.30
2018-11-25T10:10:15.202Z,99.30
2018-11-25T10:12:42.585Z,99.20
2018-11-25T10:15:11.095Z,98.90
2018-11-25T10:17:38.537Z,98.70
2018-11-25T10:20:13.831Z,98.80
2018-11-25T10:22:41.281Z,98.30
2018-11-25T10:25:11.919Z,98.30
2018-11-25T10:27:39.246Z,98.20
2018-11-25T10:30:37.748Z,98.00
2018-11-25T10:33:07.020Z,97.80
2018-11-25T10:35:34.379Z,97.60
2018-11-25T10:38:01.721Z,97.60
2018-11-25T10:40:29.141Z,97.50
2018-11-25T10:42:56.559Z,97.50
2018-11-25T10:45:25.673Z,97.50
2018-11-25T10:47:53.178Z,97.50
2018-11-25T10:50:20.793Z,97.20
2018-11-25T10:52:48.254Z,97.10
2018-11-25T10:55:16.453Z,96.60
2018-11-25T10:57:44.656Z,96.30
2018-11-25T11:00:35.981Z,96.10
2018-11-25T11:03:09.688Z,95.70
2018-11-25T11:05:42.675Z,95.70
2018-11-25T11:08:10.254Z,95.70
2018-11-25T11:10:38.070Z,95.80
2018-11-25T11:13:06.347Z,95.80
2018-11-25T11:15:33.849Z,95.50
2018-11-25T11:18:01.221Z,95.30
2018-11-25T11:20:28.514Z,94.50
2018-11-25T11:22:55.871Z,94.10
2018-11-25T11:25:23.284Z,94.10
2018-11-25T11:27:50.563Z,93.90
2018-11-25T11:30:17.936Z,94.10
2018-11-25T11:32:46.605Z,94.20
2018-11-25T11:35:14.016Z,94.00
2018-11-25T11:37:41.403Z,94.00
2018-11-25T11:40:12.779Z,93.90
2018-11-25T11:42:40.153Z,93.60
2018-11-25T11:45:09.248Z,93.70
2018-11-25T11:47:36.638Z,93.10
2018-11-25T11:50:06.768Z,93.20
2018-11-25T11:52:34.132Z,92.80
2018-11-25T11:55:01.521Z,92.70
2018-11-25T11:57:28.892Z,92.10
2018-11-25T11:59:56.260Z,92.10
2018-11-25T12:02:23.688Z,92.00
2018-11-25T12:04:51.104Z,91.90
2018-11-25T12:07:18.525Z,91.40
2018-11-25T12:09:45.932Z,91.20
2018-11-25T12:12:14.407Z,91.20
2018-11-25T12:14:41.743Z,90.60
2018-11-25T12:17:09.068Z,90.60
2018-11-25T12:19:36.477Z,90.30
2018-11-25T12:22:04.026Z,90.30
2018-11-25T12:24:31.401Z,90.40
2018-11-25T12:26:58.798Z,90.50
2018-11-25T12:29:26.149Z,90.50
2018-11-25T12:31:53.554Z,90.00
2018-11-25T12:34:20.935Z,89.60
2018-11-25T12:36:48.376Z,89.60
2018-11-25T12:39:15.719Z,90.10
2018-11-25T12:41:43.178Z,90.00
2018-11-25T12:44:10.550Z,89.70
2018-11-25T12:46:37.914Z,89.60
2018-11-25T12:49:05.314Z,89.10
2018-11-25T12:51:32.705Z,89.50
2018-11-25T12:54:00.037Z,88.20
2018-11-25T12:56:27.383Z,88.40
2018-11-25T12:58:54.746Z,88.20
2018-11-25T13:01:22.176Z,88.30
2018-11-25T13:03:49.560Z,87.70
2018-11-25T13:06:16.902Z,87.20
2018-11-25T13:08:44.267Z,87.10
2018-11-25T13:11:11.695Z,86.80
2018-11-25T13:13:39.094Z,86.90
2018-11-25T13:16:06.566Z,87.30
2018-11-25T13:18:33.976Z,86.80
2018-11-25T13:21:01.407Z,86.70
2018-11-25T13:23:28.756Z,87.10
2018-11-25T13:25:56.183Z,86.60
2018-11-25T13:28:23.567Z,86.90
2018-11-25T13:30:50.932Z,86.50
2018-11-25T13:33:18.322Z,86.90
2018-11-25T13:35:45.735Z,86.90
2018-11-25T13:38:13.093Z,87.30
2018-11-25T13:40:40.414Z,87.00
2018-11-25T13:43:07.937Z,87.30
2018-11-25T13:45:35.312Z,86.80
2018-11-25T13:48:02.719Z,87.00
2018-11-25T13:50:30.184Z,86.60
2018-11-25T13:52:57.560Z,87.10
2018-11-25T13:55:26.980Z,87.70
2018-11-25T13:57:54.449Z,87.70
2018-11-25T14:00:34.643Z,87.30
2018-11-25T14:03:01.736Z,87.90
2018-11-25T14:05:29.193Z,87.80
2018-11-25T14:07:56.691Z,87.40
2018-11-25T14:10:28.055Z,87.80
2018-11-25T14:12:55.437Z,87.50
2018-11-25T14:15:22.820Z,87.30
2018-11-25T14:17:50.220Z,87.70
2018-11-25T14:20:17.628Z,88.40
2018-11-25T14:22:45.095Z,88.70
2018-11-25T14:25:14.237Z,89.40
2018-11-25T14:27:41.804Z,90.00
2018-11-25T14:30:13.450Z,89.90
2018-11-25T14:32:39.460Z,90.00
2018-11-25T14:35:09.702Z,90.40
2018-11-25T14:37:37.197Z,90.40
2018-11-25T14:40:07.031Z,90.70
2018-11-25T14:42:34.414Z,91.00
2018-11-25T14:45:01.879Z,91.30
2018-11-25T14:47:29.640Z,91.60
2018-11-25T14:49:57.135Z,92.00
2018-11-25T14:52:24.547Z,92.20
2018-11-25T14:54:51.891Z,93.10
2018-11-25T14:57:19.331Z,93.30
2018-11-25T14:59:46.675Z,93.50
2018-11-25T15:02:14.066Z,93.60
2018-11-25T15:04:41.532Z,94.40
2018-11-25T15:07:09.015Z,94.30
2018-11-25T15:09:36.410Z,94.70
2018-11-25T15:12:03.893Z,95.10
2018-11-25T15:14:31.267Z,95.50
2018-11-25T15:16:58.637Z,95.90
2018-11-25T15:19:25.969Z,96.20
2018-11-25T15:21:53.398Z,96.70
2018-11-25T15:24:20.792Z,97.20
2018-11-25T15:26:48.171Z,97.60
2018-11-25T15:29:15.593Z,97.80
2018-11-25T15:31:42.928Z,98.10
2018-11-25T15:34:10.356Z,98.60
2018-11-25T15:36:38.739Z,98.80
2018-11-25T15:39:09.619Z,99.20
2018-11-25T15:41:36.921Z,99.40
2018-11-25T15:44:05.414Z,99.90
2018-11-25T15:46:32.978Z,99.90
2018-11-25T15:49:01.540Z,99.90
2018-11-25T15:51:28.888Z,99.90
2018-11-25T15:53:56.265Z,99.90
2018-11-25T15:56:23.689Z,99.90
2018-11-25T15:58:51.114Z,99.90
2018-11-25T16:01:19.542Z,99.90
2018-11-25T16:03:46.957Z,99.90
2018-11-25T16:06:28.757Z,99.90
2018-11-25T16:08:56.171Z,99.90
2018-11-25T16:11:24.621Z,99.90
2018-11-25T16:13:51.999Z,99.90
2018-11-25T16:16:19.422Z,99.90
2018-11-25T16:18:46.854Z,99.90
2018-11-25T16:21:14.306Z,99.90
2018-11-25T16:23:41.705Z,99.90
2018-11-25T16:26:13.507Z,99.90
2018-11-25T16:28:42.806Z,99.90
2018-11-25T16:31:10.222Z,99.90
2018-11-25T16:33:37.594Z,99.90
2018-11-25T16:36:05.121Z,99.90
2018-11-25T16:38:34.503Z,99.90
2018-11-25T16:41:01.907Z,99.90
2018-11-25T16:43:29.346Z,99.90
2018-11-25T16:45:56.750Z,99.90
2018-11-25T16:48:24.225Z,99.90
2018-11-25T16:50:51.625Z,99.90
2018-11-25T16:53:18.982Z,99.90
2018-11-25T16:55:46.332Z,99.90
2018-11-25T16:58:13.766Z,99.90
2018-11-25T17:00:41.218Z,99.90
2018-11-25T17:03:08.584Z,99.90
2018-11-25T17:05:37.875Z,99.90
2018-11-25T17:08:10.578Z,99.90
2018-11-25T17:10:37.988Z,99.90
2018-11-25T17:13:05.923Z,99.90
2018-11-25T17:15:33.308Z,99.90
2018-11-25T17:18:00.657Z,99.90
2018-11-25T17:20:28.228Z,99.90
2018-11-25T17:22:55.583Z,99.90
2018-11-25T17:25:22.994Z,99.90
2018-11-25T17:27:50.392Z,99.90
2018-11-25T17:30:18.731Z,99.90
2018-11-25T17:32:46.803Z,99.90
2018-11-25T17:35:19.387Z,99.90
2018-11-25T17:37:47.866Z,99.90
2018-11-25T17:40:15.278Z,99.90
2018-11-25T17:42:42.702Z,99.90
2018-11-25T17:45:11.312Z,99.90
2018-11-25T17:47:38.760Z,99.90
2018-11-25T17:50:13.625Z,99.90
2018-11-25T17:52:41.088Z,99.90
2018-11-25T17:55:09.846Z,99.90
2018-11-25T17:57:37.238Z,99.90
2018-11-25T18:00:13.018Z,99.90
2018-11-25T18:02:40.429Z,99.90
2018-11-25T18:05:08.151Z,99.90
2018-11-25T18:07:35.549Z,99.90
2018-11-25T18:10:02.998Z,99.90
2018-11-25T18:12:30.391Z,99.90
2018-11-25T18:14:57.839Z,99.90
2018-11-25T18:17:25.253Z,99.90
2018-11-25T18:19:52.652Z,99.90
2018-11-25T18:22:23.787Z,99.90
2018-11-25T18:24:51.190Z,99.90
2018-11-25T18:27:18.697Z,99.90
2018-11-25T18:29:46.103Z,99.90
2018-11-25T18:32:13.501Z,99.90
2018-11-25T18:34:40.864Z,99.90
2018-11-25T18:37:08.269Z,99.90
2018-11-25T18:39:35.676Z,99.90
2018-11-25T18:42:03.096Z,99.90
2018-11-25T18:44:30.450Z,99.90
2018-11-25T18:46:57.901Z,99.90
2018-11-25T18:49:25.241Z,99.90
2018-11-25T18:51:52.599Z,99.90
2018-11-25T18:54:20.050Z,99.90
2018-11-25T18:56:47.444Z,99.90
2018-11-25T18:59:14.914Z,99.90
2018-11-25T19:01:44.919Z,99.90
2018-11-25T19:04:12.363Z,99.90
2018-11-25T19:06:39.732Z,99.90
2018-11-25T19:09:08.897Z,99.90
2018-11-25T19:11:36.651Z,99.90
2018-11-25T19:14:04.127Z,99.90
2018-11-25T19:16:31.465Z,99.90
2018-11-25T19:18:58.865Z,99.90
2018-11-25T19:21:26.267Z,99.90
2018-11-25T19:23:53.761Z,99.90
2018-11-25T19:26:21.123Z,99.90
2018-11-25T19:28:48.446Z,99.90
2018-11-25T19:31:15.770Z,99.90
2018-11-25T19:33:43.252Z,99.90
2018-11-25T19:36:10.604Z,99.90
2018-11-25T19:38:37.989Z,99.90
2018-11-25T19:41:06.179Z,99.90
2018-11-25T19:43:33.634Z,99.90
2018-11-25T19:46:01.006Z,99.90
2018-11-25T19:48:28.503Z,99.90
2018-11-25T19:50:55.857Z,99.90
2018-11-25T19:53:23.206Z,99.90
2018-11-25T19:55:50.539Z,99.90
2018-11-25T19:58:17.961Z,99.90
2018-11-25T20:00:45.301Z,99.90
2018-11-25T20:03:12.683Z,99.90
2018-11-25T20:05:40.071Z,99.90
2018-11-25T20:08:07.624Z,99.90
2018-11-25T20:10:35.021Z,99.90
2018-11-25T20:13:02.430Z,99.90
2018-11-25T20:15:29.769Z,99.90
2018-11-25T20:17:57.121Z,99.90
2018-11-25T20:20:25.681Z,99.90
2018-11-25T20:22:54.710Z,99.90
2018-11-25T20:25:22.200Z,99.90
2018-11-25T20:27:53.811Z,99.90
2018-11-25T20:30:22.575Z,99.90
2018-11-25T20:32:55.821Z,99.90
2018-11-25T20:35:23.188Z,99.90
2018-11-25T20:37:56.255Z,99.90
2018-11-25T20:40:23.677Z,99.90
2018-11-25T20:42:51.143Z,99.90
2018-11-25T20:45:25.235Z,99.90
2018-11-25T20:47:52.987Z,99.90
2018-11-25T20:50:20.386Z,99.90
2018-11-25T20:52:53.417Z,99.90
2018-11-25T20:55:20.818Z,99.90
2018-11-25T20:57:48.184Z,99.90
2018-11-25T21:00:16.806Z,99.90
2018-11-25T21:02:44.183Z,99.90
2018-11-25T21:05:12.360Z,99.90
2018-11-25T21:07:39.761Z,99.90
2018-11-25T21:10:10.412Z,99.90
2018-11-25T21:12:37.915Z,99.90
2018-11-25T21:15:06.811Z,99.90
2018-11-25T21:17:34.173Z,99.90
2018-11-25T21:20:01.537Z,99.90
2018-11-25T21:22:28.883Z,99.90
2018-11-25T21:24:56.248Z,99.90
2018-11-25T21:27:23.653Z,99.90
2018-11-25T21:29:51.040Z,99.90
2018-11-25T21:32:18.448Z,99.90
2018-11-25T21:34:45.879Z,99.90
2018-11-25T21:37:13.217Z,99.90
2018-11-25T21:39:40.618Z,99.90
2018-11-25T21:42:07.950Z,99.90
2018-11-25T21:44:35.381Z,99.90
2018-11-25T21:47:02.770Z,99.90
2018-11-25T21:49:30.161Z,99.90
2018-11-25T21:51:57.538Z,99.90
2018-11-25T21:54:25.012Z,99.90
2018-11-25T21:56:52.366Z,99.90
2018-11-25T21:59:19.844Z,99.90
2018-11-25T22:01:47.196Z,99.90
2018-11-25T22:04:14.604Z,99.90
2018-11-25T22:06:41.957Z,99.90
2018-11-25T22:09:09.491Z,99.90
2018-11-25T22:11:37.045Z,99.90
2018-11-25T22:14:04.896Z,99.90
2018-11-25T22:16:32.313Z,99.90
2018-11-25T22:18:59.699Z,99.90
2018-11-25T22:21:27.056Z,99.90
2018-11-25T22:23:54.750Z,99.90
2018-11-25T22:26:22.150Z,99.90
2018-11-25T22:28:49.565Z,99.90
2018-11-25T22:31:16.959Z,99.90
2018-11-25T22:33:44.327Z,99.90
2018-11-25T22:36:11.646Z,99.90
2018-11-25T22:38:39.003Z,99.90
2018-11-25T22:41:06.406Z,99.90
2018-11-25T22:43:33.843Z,99.90
2018-11-25T22:46:01.260Z,99.90
2018-11-25T22:48:28.620Z,99.90
2018-11-25T22:50:56.034Z,99.90
2018-11-25T22:53:23.405Z,99.90
2018-11-25T22:55:50.763Z,99.90
2018-11-25T22:58:18.176Z,99.90
2018-11-25T23:00:46.596Z,99.90
2018-11-25T23:03:14.009Z,99.90
2018-11-25T23:05:52.932Z,99.90
2018-11-25T23:08:20.280Z,99.90
2018-11-25T23:10:47.665Z,99.90
2018-11-25T23:13:15.039Z,99.90
2018-11-25T23:15:42.404Z,99.90
2018-11-25T23:18:09.853Z,99.90
2018-11-25T23:20:37.298Z,99.90
2018-11-25T23:23:05.511Z,99.90
2018-11-25T23:25:32.916Z,99.90
2018-11-25T23:28:00.263Z,99.90
2018-11-25T23:30:27.677Z,99.90
2018-11-25T23:32:55.045Z,99.90
2018-11-25T23:35:26.864Z,99.90
2018-11-25T23:37:54.276Z,99.90
2018-11-25T23:40:21.651Z,99.90
2018-11-25T23:42:49.056Z,99.90
2018-11-25T23:45:16.695Z,99.90
2018-11-25T23:47:44.152Z,99.90
2018-11-25T23:50:12.528Z,99.90
2018-11-25T23:52:40.351Z,99.90
2018-11-25T23:55:09.979Z,99.90
2018-11-25T23:57:37.652Z,99.90
